Kinoene Maru — JD3762 — position and weather

sailwx.info

Track history (hours):
 
Tides and Currents Weather Stations Pressure Air Temp Water Temp Dewpoint Dewpoint Depression Visibility Wind Speed Wind Dir Waves Ship Positions

Kinoene Maru

Last reported at 2018-May-21 22:17 UTC. Time now 2018-May-22 17:42 UTC.
Position N 34°05' E 134°47'.

Length 61 m.

Type: Cargo ship. MMSI: 431005966.

Date/timePositionNaut miles runAvg speedWind from/ knotsBaromVisibWave heightAir tempDewpointWater temp
2018-May-21 22:17N 34°05' E 134°47'  
2018-May-19 06:52N 33°58' E 135°02'1412.1
2018-May-19 05:45N 34°12' E 135°03'312.8
2018-May-19 05:30N 34°15' E 135°03'613.1
2018-May-19 05:00N 34°21' E 135°06'1312.5
2018-May-19 03:58N 34°32' E 135°15'612.1
2018-May-19 03:26N 34°37' E 135°19'511.5
2018-May-19 03:00N 34°41' E 135°23'2 0.1
2018-May-18 15:57N 34°42' E 135°24'2 4.6
2018-May-18 15:26N 34°40' E 135°22'510.8
2018-May-18 15:00N 34°37' E 135°19'510.8
2018-May-18 14:30N 34°32' E 135°14'811.7
2018-May-18 13:50N 34°26' E 135°08'412.2
2018-May-18 13:30N 34°23' E 135°05'611.9
2018-May-18 13:00N 34°19' E 135°01'611.8
2018-May-18 12:30N 34°13' E 134°60'611.7
2018-May-18 12:00N 34°08' E 134°57'  
2018-May-14 08:33N 33°36' E 131°45'0 9.4
2018-May-14 08:30N 33°37' E 131°44'5 9.8
2018-May-14 07:58N 33°41' E 131°40'4 8.8
2018-May-14 07:29N 33°42' E 131°36'510.4
2018-May-14 07:00N 33°44' E 131°30'510.8
2018-May-14 06:30N 33°47' E 131°24'511.0
2018-May-14 06:00N 33°49' E 131°18'510.6
2018-May-14 05:30N 33°52' E 131°13'5 9.4
2018-May-14 05:00N 33°56' E 131°15'0 0.0
2018-May-13 22:16N 33°56' E 131°15'0 0.8
2018-May-13 22:00N 33°56' E 131°14'2 3.7
2018-May-13 21:30N 33°55' E 131°13'0 0.0
2018-May-12 08:48N 33°55' E 131°13'2 7.6
2018-May-12 08:30N 33°54' E 131°10'510.2
2018-May-12 08:00N 33°57' E 131°05'510.3
2018-May-12 07:29N 33°58' E 130°59'511.3
2018-May-12 07:00N 33°54' E 130°54'611.3
2018-May-12 06:30N 33°58' E 130°49'611.0
2018-May-12 05:59N 33°58' E 130°42'511.2
2018-May-12 05:30N 33°57' E 130°35'611.0
2018-May-12 05:00N 33°55' E 130°29'711.1
2018-May-12 04:23N 33°50' E 130°24'511.8
2018-May-12 04:00N 33°47' E 130°19'712.0
2018-May-12 03:27N 33°42' E 130°13'  
Track history (hours):
 
Tides and Currents Weather Stations Pressure Air Temp Water Temp Dewpoint Dewpoint Depression Visibility Wind Speed Wind Dir Waves Ship Positions

Kinoene Maru

Last reported at 2018-May-21 22:17 UTC. Time now 2018-May-22 17:42 UTC.
Position N 34°05' E 134°47'.

Length 61 m.

Type: Cargo ship. MMSI: 431005966.

Date/timePositionNaut miles runAvg speedWind from/ knotsBaromVisibWave heightAir tempDewpointWater temp
2018-May-21 22:17N 34°05' E 134°47'  
2018-May-19 06:52N 33°58' E 135°02'1412.1
2018-May-19 05:45N 34°12' E 135°03'312.8
2018-May-19 05:30N 34°15' E 135°03'613.1
2018-May-19 05:00N 34°21' E 135°06'1312.5
2018-May-19 03:58N 34°32' E 135°15'612.1
2018-May-19 03:26N 34°37' E 135°19'511.5
2018-May-19 03:00N 34°41' E 135°23'2 0.1
2018-May-18 15:57N 34°42' E 135°24'2 4.6
2018-May-18 15:26N 34°40' E 135°22'510.8
2018-May-18 15:00N 34°37' E 135°19'510.8
2018-May-18 14:30N 34°32' E 135°14'811.7
2018-May-18 13:50N 34°26' E 135°08'412.2
2018-May-18 13:30N 34°23' E 135°05'611.9
2018-May-18 13:00N 34°19' E 135°01'611.8
2018-May-18 12:30N 34°13' E 134°60'611.7
2018-May-18 12:00N 34°08' E 134°57'  
2018-May-14 08:33N 33°36' E 131°45'0 9.4
2018-May-14 08:30N 33°37' E 131°44'5 9.8
2018-May-14 07:58N 33°41' E 131°40'4 8.8
2018-May-14 07:29N 33°42' E 131°36'510.4
2018-May-14 07:00N 33°44' E 131°30'510.8
2018-May-14 06:30N 33°47' E 131°24'511.0
2018-May-14 06:00N 33°49' E 131°18'510.6
2018-May-14 05:30N 33°52' E 131°13'5 9.4
2018-May-14 05:00N 33°56' E 131°15'0 0.0
2018-May-13 22:16N 33°56' E 131°15'0 0.8
2018-May-13 22:00N 33°56' E 131°14'2 3.7
2018-May-13 21:30N 33°55' E 131°13'0 0.0
2018-May-12 08:48N 33°55' E 131°13'2 7.6
2018-May-12 08:30N 33°54' E 131°10'510.2
2018-May-12 08:00N 33°57' E 131°05'510.3
2018-May-12 07:29N 33°58' E 130°59'511.3
2018-May-12 07:00N 33°54' E 130°54'611.3
2018-May-12 06:30N 33°58' E 130°49'611.0
2018-May-12 05:59N 33°58' E 130°42'511.2
2018-May-12 05:30N 33°57' E 130°35'611.0
2018-May-12 05:00N 33°55' E 130°29'711.1
2018-May-12 04:23N 33°50' E 130°24'511.8
2018-May-12 04:00N 33°47' E 130°19'712.0
2018-May-12 03:27N 33°42' E 130°13'  

Dump ship's entire track history